createdAt,value
2022-10-31T00:03:03.722Z,101236.69
2022-10-31T00:08:05.542Z,101241.16
2022-10-31T00:13:07.877Z,101248.28
2022-10-31T00:18:10.430Z,101254.44
2022-10-31T00:23:12.341Z,101251.81
2022-10-31T00:28:14.051Z,101267.59
2022-10-31T00:33:15.852Z,101265.84
2022-10-31T00:38:17.734Z,101266.72
2022-10-31T00:43:19.391Z,101265.84
2022-10-31T00:48:21.111Z,101265.81
2022-10-31T00:53:24.167Z,101277.22
2022-10-31T00:58:26.018Z,101277.22
2022-10-31T01:03:29.934Z,101276.34
2022-10-31T01:08:31.595Z,101278.97
2022-10-31T01:13:33.352Z,101281.59
2022-10-31T01:18:36.893Z,101278.09
2022-10-31T01:23:38.567Z,101285.09
2022-10-31T01:28:44.420Z,101287.72
2022-10-31T01:33:46.109Z,101282.47
2022-10-31T01:38:48.112Z,101293.84
2022-10-31T01:43:55.666Z,101292.97
2022-10-31T01:48:57.853Z,101290.34
2022-10-31T01:54:01.838Z,101301.69
2022-10-31T01:59:03.493Z,101306.09
2022-10-31T02:04:05.551Z,101321.88
2022-10-31T02:09:07.283Z,101315.69
2022-10-31T02:14:08.936Z,101320.97
2022-10-31T02:19:11.121Z,101327.97
2022-10-31T02:24:41.899Z,101332.38
2022-10-31T02:30:00.869Z,101329.72
2022-10-31T02:35:18.565Z,101346.34
2022-10-31T02:40:28.116Z,101346.41
2022-10-31T02:46:08.653Z,101354.31
2022-10-31T02:51:10.823Z,101353.41
2022-10-31T02:56:13.566Z,101352.41
2022-10-31T03:01:18.181Z,101350.59
2022-10-31T03:06:31.846Z,101355.00
2022-10-31T03:11:59.175Z,101356.59
2022-10-31T03:17:02.019Z,101356.63
2022-10-31T03:22:17.779Z,101358.31
2022-10-31T03:27:21.579Z,101364.44
2022-10-31T03:32:37.655Z,101369.56
2022-10-31T03:37:39.427Z,101373.06
2022-10-31T03:42:49.691Z,101369.59
2022-10-31T03:47:51.403Z,101365.22
2022-10-31T03:52:59.259Z,101375.56
2022-10-31T03:58:13.732Z,101380.91
2022-10-31T04:03:18.567Z,101379.16
2022-10-31T04:08:27.612Z,101386.06
2022-10-31T04:13:31.530Z,101391.25
2022-10-31T04:18:40.684Z,101392.06
2022-10-31T04:23:42.371Z,101403.44
2022-10-31T04:28:54.535Z,101393.53
2022-10-31T04:33:56.306Z,101394.84
2022-10-31T04:38:58.479Z,101396.47
2022-10-31T04:44:22.258Z,101393.03
2022-10-31T04:49:26.983Z,101400.00
2022-10-31T04:54:28.667Z,101413.13
2022-10-31T05:00:05.990Z,101414.16
2022-10-31T05:05:09.738Z,101422.19
2022-10-31T05:10:12.706Z,101424.03
2022-10-31T05:15:14.819Z,101434.44
2022-10-31T05:20:29.635Z,101430.06
2022-10-31T05:25:42.083Z,101439.84
2022-10-31T05:30:43.911Z,101417.91
2022-10-31T05:35:49.070Z,101419.69
2022-10-31T05:41:11.989Z,101424.03
2022-10-31T05:46:17.689Z,101423.16
2022-10-31T05:51:38.041Z,101418.88
2022-10-31T05:56:39.775Z,101416.13
2022-10-31T06:01:41.608Z,101413.53
2022-10-31T06:06:58.107Z,101430.28
2022-10-31T06:12:00.417Z,101431.22
2022-10-31T06:17:02.118Z,101432.88
2022-10-31T06:22:35.989Z,101446.06
2022-10-31T06:27:37.719Z,101445.94
2022-10-31T06:32:45.946Z,101446.16
2022-10-31T06:37:54.465Z,101458.28
2022-10-31T06:43:06.165Z,101471.47
2022-10-31T06:48:23.741Z,101479.31
2022-10-31T06:53:49.441Z,101482.91
2022-10-31T06:58:52.207Z,101482.03
2022-10-31T07:04:04.996Z,101477.63
2022-10-31T07:09:09.794Z,101471.38
2022-10-31T07:14:11.504Z,101472.19
2022-10-31T07:19:13.282Z,101472.25
2022-10-31T07:24:15.381Z,101478.34
2022-10-31T07:29:17.035Z,101486.09
2022-10-31T07:34:18.888Z,101484.25
2022-10-31T07:39:49.929Z,101489.53
2022-10-31T07:44:53.913Z,101496.50
2022-10-31T07:50:25.367Z,101497.28
2022-10-31T07:55:45.815Z,101500.03
2022-10-31T08:00:49.030Z,101501.78
2022-10-31T08:06:00.814Z,101491.41
2022-10-31T08:11:22.861Z,101494.91
2022-10-31T08:16:24.651Z,101494.09
2022-10-31T08:21:31.946Z,101488.91
2022-10-31T08:26:34.133Z,101488.00
2022-10-31T08:31:38.937Z,101496.69
2022-10-31T08:37:02.984Z,101504.72
2022-10-31T08:42:12.221Z,101497.69
2022-10-31T08:47:13.940Z,101493.16
2022-10-31T08:52:16.079Z,101487.78
2022-10-31T08:57:19.595Z,101499.06
2022-10-31T09:02:22.881Z,101495.59
2022-10-31T09:07:27.908Z,101495.66
2022-10-31T09:12:29.856Z,101492.16
2022-10-31T09:17:50.460Z,101484.91
2022-10-31T09:23:20.187Z,101490.19
2022-10-31T09:28:23.457Z,101485.88
2022-10-31T09:33:25.431Z,101493.66
2022-10-31T09:38:47.093Z,101494.56
2022-10-31T09:43:55.010Z,101487.66
2022-10-31T09:49:18.500Z,101484.19
2022-10-31T09:54:44.171Z,101487.78
2022-10-31T09:59:46.082Z,101486.94
2022-10-31T10:05:10.851Z,101479.78
2022-10-31T10:10:54.542Z,101483.28
2022-10-31T10:16:39.405Z,101478.88
2022-10-31T10:21:52.231Z,101474.44
2022-10-31T10:27:02.823Z,101472.69
2022-10-31T10:32:11.593Z,101472.53
2022-10-31T10:37:29.352Z,101479.75
2022-10-31T10:42:49.684Z,101469.97
2022-10-31T10:47:58.027Z,101462.00
2022-10-31T10:53:07.777Z,101455.69
2022-10-31T10:58:09.697Z,101444.97
2022-10-31T11:03:11.916Z,101445.72
2022-10-31T11:08:30.861Z,101447.66
2022-10-31T11:13:32.766Z,101438.66
2022-10-31T11:18:37.872Z,101429.22
2022-10-31T11:23:39.566Z,101422.94
2022-10-31T11:28:41.275Z,101422.53
2022-10-31T11:33:47.791Z,101412.16
2022-10-31T11:38:49.605Z,101409.88
2022-10-31T11:44:12.352Z,101417.88
2022-10-31T11:49:41.889Z,101408.69
2022-10-31T11:54:47.704Z,101409.88
2022-10-31T11:59:57.227Z,101397.44
2022-10-31T12:05:22.456Z,101397.25
2022-10-31T12:10:41.364Z,101389.38
2022-10-31T12:15:47.106Z,101384.63
2022-10-31T12:20:55.868Z,101389.50
2022-10-31T12:26:17.367Z,101379.72
2022-10-31T12:31:37.683Z,101370.91
2022-10-31T12:36:55.061Z,101366.69
2022-10-31T12:42:18.366Z,101354.50
2022-10-31T12:47:34.389Z,101355.53
2022-10-31T12:52:48.098Z,101345.34
2022-10-31T12:57:53.155Z,101341.66
2022-10-31T13:03:01.457Z,101339.38
2022-10-31T13:08:19.817Z,101332.44
2022-10-31T13:13:31.529Z,101324.91
2022-10-31T13:18:35.792Z,101338.00
2022-10-31T13:23:50.804Z,101321.69
2022-10-31T13:29:22.617Z,101313.88
2022-10-31T13:34:35.157Z,101296.78
2022-10-31T13:39:52.020Z,101304.88
2022-10-31T13:44:53.699Z,101294.06
2022-10-31T13:50:19.732Z,101278.84
2022-10-31T13:55:36.871Z,101268.84
2022-10-31T14:00:38.636Z,101265.41
2022-10-31T14:05:40.329Z,101252.38
2022-10-31T14:10:48.338Z,101263.63
2022-10-31T14:15:57.490Z,101258.75
2022-10-31T14:20:59.147Z,101258.19
2022-10-31T14:26:27.457Z,101252.38
2022-10-31T14:31:33.015Z,101246.53
2022-10-31T14:37:00.558Z,101238.03
2022-10-31T14:42:26.453Z,101236.56
2022-10-31T14:48:08.009Z,101225.34
2022-10-31T14:53:14.875Z,101223.06
2022-10-31T14:58:19.644Z,101216.31
2022-10-31T15:03:34.486Z,101221.63
2022-10-31T15:08:38.642Z,101216.47
2022-10-31T15:13:50.734Z,101208.66
2022-10-31T15:19:05.891Z,101196.41
2022-10-31T15:24:11.974Z,101194.66
2022-10-31T15:29:15.876Z,101196.72
2022-10-31T15:34:23.637Z,101199.41
2022-10-31T15:39:25.332Z,101192.38
2022-10-31T15:44:32.837Z,101192.19
2022-10-31T15:49:42.169Z,101189.75
2022-10-31T15:54:49.864Z,101180.28
2022-10-31T15:59:51.652Z,101168.09
2022-10-31T16:05:01.973Z,101168.97
2022-10-31T16:10:04.644Z,101163.72
2022-10-31T16:15:06.671Z,101155.81
2022-10-31T16:20:08.634Z,101153.25
2022-10-31T16:25:15.058Z,101152.41
2022-10-31T16:30:41.731Z,101146.25
2022-10-31T16:35:45.837Z,101159.47
2022-10-31T16:40:48.074Z,101152.50
2022-10-31T16:45:51.158Z,101142.84
2022-10-31T16:50:52.833Z,101145.47
2022-10-31T16:55:58.983Z,101148.09
2022-10-31T17:01:06.072Z,101138.47
2022-10-31T17:06:11.785Z,101133.28
2022-10-31T17:11:18.829Z,101143.66
2022-10-31T17:16:20.557Z,101132.31
2022-10-31T17:21:23.279Z,101112.97
2022-10-31T17:26:24.965Z,101138.41
2022-10-31T17:31:31.091Z,101114.50
2022-10-31T17:36:33.562Z,101100.69
2022-10-31T17:41:35.292Z,101123.44
2022-10-31T17:46:37.258Z,101107.66
2022-10-31T17:51:38.984Z,101109.31
2022-10-31T17:56:40.659Z,101104.91
2022-10-31T18:01:42.517Z,101095.03
2022-10-31T18:06:44.358Z,101092.56
2022-10-31T18:11:46.126Z,101083.81
2022-10-31T18:16:47.830Z,101083.06
2022-10-31T18:21:49.573Z,101078.50
2022-10-31T18:26:51.362Z,101074.22
2022-10-31T18:31:54.290Z,101066.28
2022-10-31T18:36:55.953Z,101065.44
2022-10-31T18:41:57.673Z,101063.66
2022-10-31T18:46:59.367Z,101049.34
2022-10-31T18:52:01.071Z,101045.13
2022-10-31T18:57:02.752Z,101037.31
2022-10-31T19:02:04.516Z,101033.97
2022-10-31T19:07:06.382Z,101037.28
2022-10-31T19:12:08.097Z,101035.59
2022-10-31T19:17:09.774Z,101030.34
2022-10-31T19:22:11.460Z,101015.41
2022-10-31T19:27:13.391Z,100999.69
2022-10-31T19:32:15.282Z,100990.88
2022-10-31T19:37:17.005Z,100991.72
2022-10-31T19:42:18.681Z,100989.28
2022-10-31T19:47:20.404Z,100999.81
2022-10-31T19:52:23.261Z,100986.63
2022-10-31T19:57:48.477Z,100979.28
2022-10-31T20:02:46.559Z,100981.81
2022-10-31T20:07:48.232Z,100981.81
2022-10-31T20:12:49.895Z,100989.66
2022-10-31T20:17:51.574Z,100982.66
2022-10-31T20:22:53.447Z,100972.38
2022-10-31T20:27:55.224Z,100972.34
2022-10-31T20:32:56.945Z,100954.81
2022-10-31T20:37:58.788Z,100946.19
2022-10-31T20:43:01.353Z,100938.31
2022-10-31T20:48:03.333Z,100929.53
2022-10-31T20:53:05.899Z,100912.13
2022-10-31T20:58:07.573Z,100915.50
2022-10-31T21:03:09.311Z,100910.38
2022-10-31T21:08:10.986Z,100904.41
2022-10-31T21:13:12.663Z,100892.97
2022-10-31T21:18:14.766Z,100888.66
2022-10-31T21:23:16.474Z,100863.38
2022-10-31T21:28:18.175Z,100860.66
2022-10-31T21:33:19.952Z,100861.53
2022-10-31T21:38:21.719Z,100854.53
2022-10-31T21:43:23.401Z,100866.88
2022-10-31T21:48:28.886Z,100871.03
2022-10-31T21:53:49.341Z,100861.41
2022-10-31T21:58:51.500Z,100857.22
2022-10-31T22:03:53.195Z,100851.75
2022-10-31T22:08:54.997Z,100843.94
2022-10-31T22:13:58.366Z,100842.09
2022-10-31T22:19:00.204Z,100821.22
2022-10-31T22:24:04.976Z,100813.41
2022-10-31T22:29:11.113Z,100810.69
2022-10-31T22:34:12.860Z,100811.81
2022-10-31T22:39:14.578Z,100794.94
2022-10-31T22:44:16.309Z,100804.69
2022-10-31T22:49:18.391Z,100793.13
2022-10-31T22:54:20.147Z,100787.31
2022-10-31T22:59:21.806Z,100779.31
2022-10-31T23:04:23.596Z,100772.16
2022-10-31T23:09:25.283Z,100763.75
2022-10-31T23:14:27.009Z,100763.00
2022-10-31T23:19:29.709Z,100765.50
2022-10-31T23:24:39.447Z,100770.03
2022-10-31T23:29:45.060Z,100760.41
2022-10-31T23:34:47.333Z,100751.72
2022-10-31T23:39:49.040Z,100745.66
2022-10-31T23:44:50.764Z,100747.41
2022-10-31T23:49:52.506Z,100734.31
2022-10-31T23:54:54.274Z,100745.69
2022-10-31T23:59:55.978Z,100751.78
